Portada
METAR-TAF:

METAR-TAF

Aeroports :

Funchal, Madeira, Portugal

latitud: 32-41-52N, longitud: 016-46-28W, altitud: 59 m

Observació

L'informe es va fer fa 29 minuts, a les 14:00 UTC
Vent 14 kt del Nord-Est
Temperatura 30°C
Humitat 21%
Pressió 1021 hPa
Visibilitat 10 km o més
Escasses núvols a una alçada de 1400 ft

METAR: LPMA 251400Z 04014KT 9999 FEW014 30/05 Q1021

Hora: 15:29 (14:29 UTC)

Pronòstic

L'informe es va fer fa 3 hores i 29 minuts, a les 11:00 UTC
Pronòstic vàlid del 25 a les 12 UTC al 26 a les 12 UTC
Vent 15 kt del Nord/Nord-Est
Visibilitat 10 km o més
Escasses núvols a una alçada de 1500 ft
Probabilitat 30% :
Temporalment
l' 25 a les 12 UTC al 25 a les 21 UTC
Vent 18 kt del Nord amb ràfegues de 30 kt

TAF: LPMA 251100Z 2512/2612 02015KT 9999 FEW015 PROB30 TEMPO 2512/2521 01018G30KT

Observacions i pronòstics meteorològics de més de 4000 aeroports (METAR i TAF).

Les estacions disponibles són els punts grocs i vermells al mapa.

Posi el ratolí al punt desitjat per veure el nom de l'estació.

Feu clic per veure les observacions i els pronòstics meteorològics.

Per canviar el mapa: feu clic els botons verds amb una creu de color negre per apropar; al botó verd amb un guió per allunyar la imatge; o en les fletxes verdes per a mapes adjacents.


METAR-TAF: